createdAt,value
2018-11-29T00:00:34.074Z,80.18
2018-11-29T00:03:01.790Z,80.72
2018-11-29T00:05:29.346Z,80.20
2018-11-29T00:07:56.923Z,79.55
2018-11-29T00:10:24.511Z,80.62
2018-11-29T00:12:52.181Z,80.29
2018-11-29T00:15:20.663Z,80.99
2018-11-29T00:17:48.342Z,81.23
2018-11-29T00:20:17.260Z,82.06
2018-11-29T00:22:45.163Z,82.10
2018-11-29T00:25:14.273Z,83.29
2018-11-29T00:27:42.124Z,82.89
2018-11-29T00:30:15.502Z,82.15
2018-11-29T00:32:43.182Z,82.72
2018-11-29T00:35:11.109Z,81.61
2018-11-29T00:37:38.702Z,81.61
2018-11-29T00:40:11.056Z,81.95
2018-11-29T00:42:38.729Z,81.24
2018-11-29T00:45:07.679Z,81.42
2018-11-29T00:47:35.413Z,80.84
2018-11-29T00:50:02.911Z,81.95
2018-11-29T00:52:30.475Z,80.99
2018-11-29T00:54:58.173Z,80.95
2018-11-29T00:57:25.749Z,80.76
2018-11-29T00:59:53.386Z,80.67
2018-11-29T01:02:21.082Z,80.29
2018-11-29T01:04:48.939Z,79.85
2018-11-29T01:07:16.596Z,79.85
2018-11-29T01:09:44.314Z,79.67
2018-11-29T01:12:11.932Z,79.58
2018-11-29T01:14:39.612Z,80.09
2018-11-29T01:17:07.266Z,80.53
2018-11-29T01:19:34.835Z,81.13
2018-11-29T01:22:02.488Z,81.23
2018-11-29T01:24:30.281Z,81.84
2018-11-29T01:26:57.847Z,82.25
2018-11-29T01:29:25.611Z,81.83
2018-11-29T01:31:53.209Z,81.63
2018-11-29T01:34:20.785Z,81.50
2018-11-29T01:36:48.349Z,81.49
2018-11-29T01:39:16.069Z,80.87
2018-11-29T01:41:43.659Z,80.44
2018-11-29T01:44:11.344Z,81.23
2018-11-29T01:46:39.215Z,81.40
2018-11-29T01:49:06.841Z,82.56
2018-11-29T01:51:34.413Z,83.24
2018-11-29T01:54:01.933Z,83.56
2018-11-29T01:56:29.536Z,84.83
2018-11-29T01:58:57.122Z,84.28
2018-11-29T02:01:24.841Z,83.85
2018-11-29T02:03:52.601Z,84.33
2018-11-29T02:06:20.189Z,83.95
2018-11-29T02:08:47.698Z,84.87
2018-11-29T02:11:15.293Z,84.04
2018-11-29T02:13:42.864Z,84.20
2018-11-29T02:16:10.408Z,83.80
2018-11-29T02:18:38.011Z,83.84
2018-11-29T02:21:06.266Z,83.50
2018-11-29T02:23:33.860Z,84.39
2018-11-29T02:26:01.390Z,83.90
2018-11-29T02:28:29.139Z,84.00
2018-11-29T02:30:56.833Z,84.40
2018-11-29T02:33:24.390Z,84.02
2018-11-29T02:35:51.956Z,83.92
2018-11-29T02:38:19.555Z,83.67
2018-11-29T02:40:47.115Z,84.76
2018-11-29T02:43:14.794Z,84.69
2018-11-29T02:45:42.327Z,85.10
2018-11-29T02:48:09.971Z,84.29
2018-11-29T02:50:37.617Z,84.67
2018-11-29T02:53:05.301Z,84.72
2018-11-29T02:55:32.985Z,84.59
2018-11-29T02:58:00.560Z,84.88
2018-11-29T03:00:28.102Z,84.86
2018-11-29T03:02:55.781Z,84.61
2018-11-29T03:05:23.419Z,84.54
2018-11-29T03:07:51.166Z,84.86
2018-11-29T03:10:28.063Z,85.55
2018-11-29T03:12:55.685Z,84.86
2018-11-29T03:15:23.273Z,85.57
2018-11-29T03:17:50.857Z,85.15
2018-11-29T03:20:18.436Z,85.16
2018-11-29T03:22:45.961Z,84.90
2018-11-29T03:25:14.130Z,84.92
2018-11-29T03:27:41.984Z,85.43
2018-11-29T03:30:11.219Z,84.69
2018-11-29T03:32:38.821Z,84.88
2018-11-29T03:35:06.508Z,84.80
2018-11-29T03:37:34.058Z,84.54
2018-11-29T03:40:01.812Z,84.75
2018-11-29T03:42:29.352Z,84.57
2018-11-29T03:44:57.002Z,84.44
2018-11-29T03:47:24.718Z,84.68
2018-11-29T03:49:52.246Z,84.72
2018-11-29T03:52:20.044Z,84.13
2018-11-29T03:54:47.594Z,84.63
2018-11-29T03:57:15.354Z,85.09
2018-11-29T04:02:16.858Z,84.88
2018-11-29T04:04:44.461Z,85.21
2018-11-29T04:07:12.125Z,84.95
2018-11-29T04:09:39.712Z,85.20
2018-11-29T04:12:07.244Z,84.91
2018-11-29T04:14:34.765Z,85.04
2018-11-29T04:17:02.580Z,85.31
2018-11-29T04:19:30.113Z,84.91
2018-11-29T04:21:57.775Z,85.71
2018-11-29T04:24:25.409Z,85.42
2018-11-29T04:26:52.978Z,85.79
2018-11-29T04:29:20.500Z,85.78
2018-11-29T04:31:48.080Z,86.10
2018-11-29T04:34:15.882Z,86.01
2018-11-29T04:36:43.790Z,86.13
2018-11-29T04:39:11.756Z,86.07
2018-11-29T04:41:39.272Z,86.22
2018-11-29T04:44:06.837Z,86.70
2018-11-29T04:46:51.900Z,86.51
2018-11-29T04:49:19.446Z,86.21
2018-11-29T04:51:47.030Z,86.38
2018-11-29T04:54:14.631Z,86.98
2018-11-29T04:56:42.251Z,87.01
2018-11-29T04:59:09.980Z,86.89
2018-11-29T05:01:37.897Z,87.10
2018-11-29T05:04:05.742Z,87.38
2018-11-29T05:06:33.415Z,87.92
2018-11-29T05:09:00.968Z,87.97
2018-11-29T05:11:28.547Z,87.46
2018-11-29T05:13:56.193Z,87.44
2018-11-29T05:16:23.705Z,87.79
2018-11-29T05:18:51.531Z,88.05
2018-11-29T05:21:19.052Z,88.08
2018-11-29T05:23:46.622Z,88.97
2018-11-29T05:26:14.175Z,88.60
2018-11-29T05:28:41.884Z,87.56
2018-11-29T05:31:09.510Z,87.97
2018-11-29T05:33:37.093Z,87.83
2018-11-29T05:36:04.833Z,87.99
2018-11-29T05:38:32.398Z,87.55
2018-11-29T05:41:00.001Z,87.33
2018-11-29T05:43:27.832Z,88.28
2018-11-29T05:45:55.392Z,88.18
2018-11-29T05:48:22.936Z,88.82
2018-11-29T05:50:50.624Z,88.67
2018-11-29T05:53:18.277Z,89.17
2018-11-29T05:55:45.822Z,89.15
2018-11-29T05:58:13.434Z,89.77
2018-11-29T06:00:41.241Z,89.99
2018-11-29T06:03:08.826Z,90.43
2018-11-29T06:05:36.486Z,90.05
2018-11-29T06:08:04.205Z,89.94
2018-11-29T06:10:31.813Z,89.49
2018-11-29T06:12:59.355Z,89.06
2018-11-29T06:15:26.949Z,88.47
2018-11-29T06:17:54.491Z,89.42
2018-11-29T06:20:22.281Z,89.83
2018-11-29T06:22:56.193Z,89.24
2018-11-29T06:25:24.129Z,88.99
2018-11-29T06:27:51.847Z,89.21
2018-11-29T06:30:20.882Z,89.34
2018-11-29T06:32:49.079Z,89.36
2018-11-29T06:35:16.708Z,88.84
2018-11-29T06:37:44.289Z,88.79
2018-11-29T06:40:12.415Z,88.89
2018-11-29T06:42:39.991Z,87.94
2018-11-29T06:45:09.626Z,88.81
2018-11-29T06:47:37.173Z,89.61
2018-11-29T06:50:05.828Z,90.03
2018-11-29T06:52:33.449Z,89.53
2018-11-29T06:55:01.104Z,88.97
2018-11-29T06:57:28.613Z,89.00
2018-11-29T06:59:56.397Z,88.85
2018-11-29T07:02:23.943Z,88.42
2018-11-29T07:04:51.508Z,88.62
2018-11-29T07:07:19.091Z,88.38
2018-11-29T07:09:46.753Z,88.35
2018-11-29T07:12:14.858Z,88.50
2018-11-29T07:14:42.486Z,87.91
2018-11-29T07:17:10.079Z,87.76
2018-11-29T07:19:37.583Z,87.18
2018-11-29T07:22:05.396Z,87.74
2018-11-29T07:24:33.029Z,86.46
2018-11-29T07:27:00.626Z,86.03
2018-11-29T07:29:28.218Z,85.81
2018-11-29T07:31:55.806Z,85.28
2018-11-29T07:34:23.339Z,84.84
2018-11-29T07:36:50.897Z,84.77
2018-11-29T07:39:18.490Z,84.16
2018-11-29T07:41:46.746Z,83.83
2018-11-29T07:44:14.491Z,83.64
2018-11-29T07:46:42.073Z,82.91
2018-11-29T07:49:09.629Z,82.09
2018-11-29T07:51:37.327Z,83.04
2018-11-29T07:54:04.992Z,82.45
2018-11-29T07:56:32.655Z,81.11
2018-11-29T07:59:00.333Z,81.46
2018-11-29T08:01:27.974Z,80.87
2018-11-29T08:03:55.532Z,79.74
2018-11-29T08:06:23.089Z,79.46
2018-11-29T08:08:50.645Z,79.03
2018-11-29T08:11:18.310Z,78.42
2018-11-29T08:13:45.870Z,76.96
2018-11-29T08:16:13.533Z,75.96
2018-11-29T08:18:41.315Z,76.55
2018-11-29T08:21:09.025Z,75.75
2018-11-29T08:23:36.610Z,75.13
2018-11-29T08:26:04.279Z,74.18
2018-11-29T08:28:31.823Z,73.58
2018-11-29T08:30:59.389Z,72.54
2018-11-29T08:33:26.952Z,72.50
2018-11-29T08:35:54.522Z,72.51
2018-11-29T08:38:22.085Z,70.90
2018-11-29T08:40:49.618Z,70.07
2018-11-29T08:43:17.190Z,70.24
2018-11-29T08:45:44.954Z,69.17
2018-11-29T08:48:12.598Z,68.96
2018-11-29T08:50:40.200Z,68.66
2018-11-29T08:53:07.732Z,68.51
2018-11-29T08:55:35.304Z,68.76
2018-11-29T08:58:02.829Z,68.55
2018-11-29T09:00:30.617Z,69.19
2018-11-29T09:02:58.165Z,67.93
2018-11-29T09:05:25.991Z,67.97
2018-11-29T09:07:53.551Z,68.33
2018-11-29T09:10:21.881Z,67.13
2018-11-29T09:12:49.460Z,67.57
2018-11-29T09:15:17.486Z,67.56
2018-11-29T09:17:45.089Z,67.32
2018-11-29T09:20:14.296Z,67.35
2018-11-29T09:22:41.911Z,66.06
2018-11-29T09:25:10.232Z,65.28
2018-11-29T09:27:37.864Z,65.63
2018-11-29T09:30:12.596Z,65.50
2018-11-29T09:32:40.346Z,65.45
2018-11-29T09:35:08.049Z,64.98
2018-11-29T09:37:35.762Z,64.58
2018-11-29T09:40:03.383Z,64.00
2018-11-29T09:42:31.016Z,63.76
2018-11-29T09:44:58.543Z,63.42
2018-11-29T09:47:26.235Z,62.12
2018-11-29T09:49:53.866Z,62.53
2018-11-29T09:52:21.452Z,61.20
2018-11-29T09:54:49.111Z,60.35
2018-11-29T09:57:16.735Z,60.47
2018-11-29T09:59:44.299Z,60.91
2018-11-29T10:02:11.802Z,60.06
2018-11-29T10:04:39.353Z,59.05
2018-11-29T10:07:06.888Z,59.97
2018-11-29T10:09:34.460Z,58.62
2018-11-29T10:12:01.958Z,56.84
2018-11-29T10:14:29.606Z,56.34
2018-11-29T10:16:57.289Z,56.23
2018-11-29T10:19:24.797Z,55.17
2018-11-29T10:21:52.380Z,55.05
2018-11-29T10:24:20.019Z,54.72
2018-11-29T10:26:47.581Z,54.50
2018-11-29T10:29:15.148Z,54.74
2018-11-29T10:31:42.719Z,53.63
2018-11-29T10:34:10.461Z,54.87
2018-11-29T10:36:38.021Z,52.61
2018-11-29T10:39:07.064Z,52.90
2018-11-29T10:41:34.698Z,52.71
2018-11-29T10:44:02.336Z,52.10
2018-11-29T10:46:29.858Z,52.04
2018-11-29T10:48:57.475Z,52.66
2018-11-29T10:51:25.123Z,52.23
2018-11-29T10:53:52.904Z,52.22
2018-11-29T10:56:20.675Z,51.02
2018-11-29T10:58:48.210Z,50.19
2018-11-29T11:01:21.044Z,49.79
2018-11-29T11:03:48.657Z,50.45
2018-11-29T11:06:16.268Z,48.93
2018-11-29T11:08:43.960Z,48.73
2018-11-29T11:11:11.502Z,49.08
2018-11-29T11:13:39.113Z,49.76
2018-11-29T11:16:06.955Z,47.71
2018-11-29T11:18:34.821Z,48.33
2018-11-29T11:21:02.555Z,48.80
2018-11-29T11:23:30.207Z,48.75
2018-11-29T11:25:57.773Z,49.99
2018-11-29T11:28:25.363Z,47.97
2018-11-29T11:30:52.883Z,49.06
2018-11-29T11:33:20.398Z,49.47
2018-11-29T11:35:48.183Z,48.21
2018-11-29T11:38:15.757Z,49.25
2018-11-29T11:40:43.374Z,48.05
2018-11-29T11:43:10.974Z,49.49
2018-11-29T11:45:38.571Z,49.53
2018-11-29T11:48:06.694Z,49.17
2018-11-29T11:50:34.609Z,49.53
2018-11-29T11:53:02.262Z,49.59
2018-11-29T11:55:30.452Z,49.55
2018-11-29T11:57:57.448Z,49.00
2018-11-29T12:00:29.613Z,48.84
2018-11-29T12:02:57.810Z,48.27
2018-11-29T12:05:25.373Z,49.97
2018-11-29T12:07:52.915Z,49.54
2018-11-29T12:10:20.447Z,50.11
2018-11-29T12:12:48.220Z,49.26
2018-11-29T12:15:15.926Z,49.93
2018-11-29T12:17:44.146Z,49.00
2018-11-29T12:20:12.200Z,48.10
2018-11-29T12:22:39.974Z,48.68
2018-11-29T12:25:08.625Z,48.32
2018-11-29T12:27:36.212Z,48.24
2018-11-29T12:30:04.463Z,48.36
2018-11-29T12:32:32.026Z,48.46
2018-11-29T12:34:59.912Z,48.75
2018-11-29T12:37:27.495Z,48.28
2018-11-29T12:39:55.045Z,49.19
2018-11-29T12:42:22.794Z,47.97
2018-11-29T12:44:50.319Z,50.53
2018-11-29T12:47:17.938Z,48.69
2018-11-29T12:49:45.615Z,49.09
2018-11-29T12:52:13.177Z,49.27
2018-11-29T12:54:40.751Z,50.00
2018-11-29T12:57:08.292Z,49.40
2018-11-29T12:59:36.052Z,49.61
2018-11-29T13:02:03.637Z,50.04
2018-11-29T13:04:32.260Z,49.48
2018-11-29T13:06:58.888Z,48.92
2018-11-29T13:09:26.540Z,48.78
2018-11-29T13:11:54.134Z,48.71
2018-11-29T13:14:21.754Z,48.56
2018-11-29T13:16:49.483Z,48.40
2018-11-29T13:19:17.176Z,49.03
2018-11-29T13:21:44.729Z,47.89
2018-11-29T13:24:12.288Z,47.88
2018-11-29T13:26:39.958Z,47.76
2018-11-29T13:29:07.528Z,48.90
2018-11-29T13:31:35.242Z,48.28
2018-11-29T13:34:02.792Z,48.77
2018-11-29T13:36:30.587Z,48.15
2018-11-29T13:38:58.285Z,48.00
2018-11-29T13:41:26.119Z,47.93
2018-11-29T13:43:53.753Z,49.29
2018-11-29T13:46:21.423Z,48.79
2018-11-29T13:48:48.996Z,49.41
2018-11-29T13:51:16.546Z,49.10
2018-11-29T13:53:44.188Z,49.90
2018-11-29T13:56:11.815Z,49.37
2018-11-29T13:58:39.361Z,50.68
2018-11-29T14:01:06.932Z,49.95
2018-11-29T14:03:34.533Z,50.25
2018-11-29T14:06:02.094Z,51.43
2018-11-29T14:08:29.650Z,51.38
2018-11-29T14:10:57.320Z,51.46
2018-11-29T14:13:24.837Z,51.29
2018-11-29T14:15:52.381Z,51.83
2018-11-29T14:18:20.043Z,51.53
2018-11-29T14:20:47.654Z,52.26
2018-11-29T14:23:15.227Z,52.09
2018-11-29T14:25:43.103Z,51.93
2018-11-29T14:28:10.628Z,51.84
2018-11-29T14:30:38.851Z,51.87
2018-11-29T14:33:06.725Z,52.52
2018-11-29T14:35:34.459Z,52.69
2018-11-29T14:38:02.107Z,52.20
2018-11-29T14:40:31.026Z,52.31
2018-11-29T14:42:58.651Z,52.34
2018-11-29T14:45:26.699Z,52.48
2018-11-29T14:47:54.566Z,52.96
2018-11-29T14:50:25.673Z,53.10
2018-11-29T14:52:53.257Z,53.82
2018-11-29T14:55:21.804Z,53.80
2018-11-29T14:57:48.460Z,54.05
2018-11-29T15:00:16.097Z,54.19
2018-11-29T15:02:43.698Z,53.70
2018-11-29T15:05:15.331Z,53.88
2018-11-29T15:07:42.965Z,53.33
2018-11-29T15:10:10.540Z,53.70
2018-11-29T15:12:38.207Z,53.74
2018-11-29T15:15:06.977Z,54.32
2018-11-29T15:17:34.588Z,54.94
2018-11-29T15:20:02.214Z,55.06
2018-11-29T15:22:29.867Z,54.81
2018-11-29T15:24:57.483Z,55.35
2018-11-29T15:27:25.170Z,54.92
2018-11-29T15:29:52.764Z,54.95
2018-11-29T15:32:20.404Z,55.19
2018-11-29T15:34:48.021Z,55.49
2018-11-29T15:37:15.554Z,55.53
2018-11-29T15:39:43.248Z,56.18
2018-11-29T15:42:10.841Z,55.34
2018-11-29T15:44:38.369Z,55.80
2018-11-29T15:47:05.985Z,55.61
2018-11-29T15:49:33.647Z,55.97
2018-11-29T15:52:01.182Z,55.85
2018-11-29T15:54:28.874Z,55.71
2018-11-29T15:56:56.389Z,56.31
2018-11-29T15:59:23.963Z,56.03
2018-11-29T16:01:51.522Z,56.55
2018-11-29T16:04:19.181Z,56.75
2018-11-29T16:06:46.757Z,56.39
2018-11-29T16:09:14.422Z,55.99
2018-11-29T16:11:42.009Z,56.53
2018-11-29T16:14:09.537Z,56.72
2018-11-29T16:16:37.069Z,57.01
2018-11-29T16:19:04.636Z,56.72
2018-11-29T16:21:32.209Z,56.84
2018-11-29T16:23:59.880Z,56.91
2018-11-29T16:26:27.587Z,56.48
2018-11-29T16:28:55.198Z,56.37
2018-11-29T16:31:22.864Z,57.73
2018-11-29T16:36:24.447Z,57.32
2018-11-29T16:38:52.468Z,58.02
2018-11-29T16:41:20.154Z,57.53
2018-11-29T16:43:47.670Z,57.22
2018-11-29T16:46:15.304Z,58.18
2018-11-29T16:48:42.831Z,57.73
2018-11-29T16:51:10.385Z,58.13
2018-11-29T16:53:37.993Z,57.78
2018-11-29T16:56:05.605Z,57.83
2018-11-29T16:58:33.151Z,58.30
2018-11-29T17:01:00.779Z,58.17
2018-11-29T17:03:28.505Z,58.18
2018-11-29T17:05:56.059Z,58.04
2018-11-29T17:08:23.608Z,58.49
2018-11-29T17:10:51.755Z,58.22
2018-11-29T17:13:19.537Z,58.23
2018-11-29T17:15:47.129Z,58.61
2018-11-29T17:18:14.740Z,58.71
2018-11-29T17:20:42.313Z,59.20
2018-11-29T17:23:10.363Z,58.93
2018-11-29T17:25:37.919Z,59.12
2018-11-29T17:28:05.985Z,59.23
2018-11-29T17:33:08.246Z,60.60
2018-11-29T17:35:36.280Z,60.86
2018-11-29T17:38:04.010Z,60.83
2018-11-29T17:40:31.716Z,61.20
2018-11-29T17:42:59.337Z,61.66
2018-11-29T17:45:27.643Z,62.35
2018-11-29T17:47:57.839Z,62.61
2018-11-29T17:50:29.289Z,63.15
2018-11-29T17:52:56.936Z,63.34
2018-11-29T17:55:24.591Z,63.50
2018-11-29T17:57:52.174Z,64.27
2018-11-29T18:00:21.489Z,64.82
2018-11-29T18:02:49.208Z,65.57
2018-11-29T18:05:17.044Z,66.03
2018-11-29T18:07:44.636Z,66.38
2018-11-29T18:10:15.113Z,65.79
2018-11-29T18:12:43.139Z,66.48
2018-11-29T18:15:12.065Z,67.00
2018-11-29T18:17:39.656Z,67.37
2018-11-29T18:20:08.087Z,67.02
2018-11-29T18:22:35.824Z,67.46
2018-11-29T18:25:03.375Z,67.14
2018-11-29T18:27:30.941Z,67.67
2018-11-29T18:29:58.529Z,67.39
2018-11-29T18:32:26.063Z,67.72
2018-11-29T18:34:53.708Z,67.67
2018-11-29T18:37:21.304Z,68.50
2018-11-29T18:39:48.794Z,67.90
2018-11-29T18:42:16.333Z,68.82
2018-11-29T18:44:43.903Z,68.89
2018-11-29T18:47:14.270Z,69.36
2018-11-29T18:49:41.944Z,69.23
2018-11-29T18:52:09.774Z,69.06
2018-11-29T18:54:37.512Z,69.19
2018-11-29T18:57:05.354Z,69.33
2018-11-29T18:59:33.010Z,69.40
2018-11-29T19:02:00.699Z,70.00
2018-11-29T19:04:28.294Z,69.67
2018-11-29T19:06:55.975Z,69.87
2018-11-29T19:09:23.672Z,70.80
2018-11-29T19:11:51.317Z,70.58
2018-11-29T19:14:18.976Z,70.70
2018-11-29T19:16:46.515Z,71.29
2018-11-29T19:19:14.310Z,70.84
2018-11-29T19:21:41.842Z,71.09
2018-11-29T19:24:09.454Z,71.58
2018-11-29T19:26:37.065Z,71.21
2018-11-29T19:29:05.140Z,71.65
2018-11-29T19:31:32.824Z,71.88
2018-11-29T19:34:01.554Z,72.07
2018-11-29T19:36:27.960Z,72.19
2018-11-29T19:38:55.639Z,71.92
2018-11-29T19:41:23.236Z,72.24
2018-11-29T19:43:50.936Z,72.69
2018-11-29T19:46:18.617Z,72.70
2018-11-29T19:48:46.228Z,73.23
2018-11-29T19:51:13.893Z,73.03
2018-11-29T19:53:41.556Z,72.88
2018-11-29T19:56:09.266Z,73.47
2018-11-29T19:58:36.796Z,73.21
2018-11-29T20:01:04.526Z,73.06
2018-11-29T20:03:32.007Z,73.58
2018-11-29T20:05:59.587Z,73.60
2018-11-29T20:08:27.155Z,73.81
2018-11-29T20:10:54.650Z,74.43
2018-11-29T20:13:22.260Z,74.11
2018-11-29T20:15:50.701Z,73.81
2018-11-29T20:18:18.252Z,74.03
2018-11-29T20:20:45.757Z,74.15
2018-11-29T20:23:13.394Z,74.91
2018-11-29T20:25:41.870Z,74.35
2018-11-29T20:28:09.442Z,74.20
2018-11-29T20:30:37.087Z,75.25
2018-11-29T20:33:05.550Z,74.91
2018-11-29T20:35:33.074Z,75.57
2018-11-29T20:38:00.716Z,76.31
2018-11-29T20:40:31.483Z,75.32
2018-11-29T20:42:59.723Z,75.72
2018-11-29T20:45:31.129Z,75.23
2018-11-29T20:47:58.731Z,75.25
2018-11-29T20:50:27.006Z,76.02
2018-11-29T20:52:55.284Z,75.81
2018-11-29T20:55:24.507Z,74.99
2018-11-29T20:57:52.186Z,74.99
2018-11-29T21:00:19.965Z,75.58
2018-11-29T21:02:47.553Z,75.75
2018-11-29T21:05:15.809Z,76.49
2018-11-29T21:07:44.631Z,75.86
2018-11-29T21:10:14.202Z,76.40
2018-11-29T21:12:41.973Z,76.27
2018-11-29T21:15:09.497Z,76.47
2018-11-29T21:17:37.088Z,76.96
2018-11-29T21:20:05.641Z,77.37
2018-11-29T21:22:33.197Z,77.33
2018-11-29T21:25:00.985Z,77.23
2018-11-29T21:27:28.649Z,78.24
2018-11-29T21:29:56.273Z,78.21
2018-11-29T21:32:23.873Z,77.67
2018-11-29T21:34:51.495Z,77.21
2018-11-29T21:37:19.091Z,77.65
2018-11-29T21:39:46.864Z,78.27
2018-11-29T21:42:14.400Z,78.50
2018-11-29T21:44:42.133Z,78.62
2018-11-29T21:47:09.782Z,79.82
2018-11-29T21:49:37.335Z,79.39
2018-11-29T21:52:04.973Z,79.14
2018-11-29T21:54:32.529Z,78.81
2018-11-29T21:57:00.200Z,79.94
2018-11-29T21:59:27.887Z,78.98
2018-11-29T22:01:55.422Z,78.96
2018-11-29T22:04:23.329Z,80.14
2018-11-29T22:06:52.644Z,79.43
2018-11-29T22:09:20.246Z,79.94
2018-11-29T22:11:47.909Z,80.08
2018-11-29T22:14:15.593Z,80.39
2018-11-29T22:16:43.257Z,80.44
2018-11-29T22:19:10.800Z,80.22
2018-11-29T22:21:38.393Z,81.16
2018-11-29T22:24:06.041Z,81.00
2018-11-29T22:26:33.592Z,81.68
2018-11-29T22:29:01.155Z,81.75
2018-11-29T22:31:28.681Z,81.96
2018-11-29T22:33:56.447Z,82.15
2018-11-29T22:36:24.024Z,81.81
2018-11-29T22:38:51.588Z,82.71
2018-11-29T22:41:19.254Z,82.48
2018-11-29T22:43:46.893Z,83.48
2018-11-29T22:46:14.478Z,82.98
2018-11-29T22:48:42.173Z,83.39
2018-11-29T22:51:10.061Z,83.16
2018-11-29T22:53:37.666Z,83.71
2018-11-29T22:56:06.699Z,84.08
2018-11-29T22:58:34.330Z,84.11
2018-11-29T23:01:01.922Z,84.73
2018-11-29T23:03:29.738Z,84.63
2018-11-29T23:05:57.320Z,84.42
2018-11-29T23:08:24.997Z,84.68
2018-11-29T23:10:52.719Z,85.04
2018-11-29T23:13:21.558Z,85.15
2018-11-29T23:15:50.680Z,85.11
2018-11-29T23:18:18.210Z,84.86
2018-11-29T23:20:47.105Z,85.04
2018-11-29T23:23:14.660Z,84.83
2018-11-29T23:25:42.973Z,85.46
2018-11-29T23:28:11.597Z,84.91
2018-11-29T23:30:39.206Z,84.88
2018-11-29T23:33:06.856Z,85.03
2018-11-29T23:35:34.405Z,85.32
2018-11-29T23:38:01.945Z,85.34
2018-11-29T23:40:29.502Z,86.20
2018-11-29T23:42:57.165Z,85.15
2018-11-29T23:45:24.896Z,85.43
2018-11-29T23:47:52.477Z,85.48
2018-11-29T23:50:20.061Z,85.59
2018-11-29T23:52:47.620Z,85.31
2018-11-29T23:55:15.831Z,85.80
2018-11-29T23:57:43.360Z,84.73
